Time;durP1;ratioP1;P1;durP2;ratioP2;P2;SDS_P1;SDS_P2;PMS_P1;PMS_P2;Temp;Humidity;BMP_temperature;BMP_pressure;BME280_temperature;BME280_humidity;BME280_pressure;Samples;Min_cycle;Max_cycle;Signal;HPM_P1;HPM_P2
2021/06/29 00:01:13;;;;;;;7.73;7.03;;;20.50;99.90;;;;;;5032746;28;20448;-73
2021/06/29 00:03:40;;;;;;;13.27;8.70;;;20.50;99.90;;;;;;5033175;28;20455;-73
2021/06/29 00:06:07;;;;;;;8.90;8.10;;;20.50;99.90;;;;;;5016121;28;20453;-73
2021/06/29 00:08:34;;;;;;;9.33;8.33;;;20.60;99.90;;;;;;5033145;28;20484;-73
2021/06/29 00:11:21;;;;;;;10.33;8.03;;;20.60;99.90;;;;;;5033575;28;20463;-72
2021/06/29 00:13:48;;;;;;;11.17;8.80;;;20.60;99.90;;;;;;5034038;28;20591;-72
2021/06/29 00:16:15;;;;;;;8.27;7.53;;;20.60;99.90;;;;;;5030910;28;20466;-72
2021/06/29 00:18:42;;;;;;;7.90;7.20;;;20.60;99.90;;;;;;5033637;28;20427;-72
2021/06/29 00:21:09;;;;;;;7.23;6.50;;;20.60;99.90;;;;;;5033319;28;20453;-72
2021/06/29 00:23:39;;;;;;;7.00;6.30;;;20.70;99.90;;;;;;5031619;28;20472;-72
2021/06/29 00:26:08;;;;;;;6.03;5.43;;;20.70;99.90;;;;;;5033633;28;20456;-72
2021/06/29 00:28:36;;;;;;;7.20;6.50;;;20.60;99.90;;;;;;5033617;28;20428;-72
2021/06/29 00:31:04;;;;;;;5.30;4.70;;;20.60;99.90;;;;;;5031604;28;20424;-72
2021/06/29 00:33:40;;;;;;;6.70;5.40;;;20.50;99.90;;;;;;5033881;28;20423;-72
2021/06/29 00:36:08;;;;;;;6.63;5.40;;;20.50;99.90;;;;;;5015318;28;21029;-72
2021/06/29 00:38:35;;;;;;;6.30;5.70;;;20.50;99.90;;;;;;5032355;28;20544;-72
2021/06/29 00:41:02;;;;;;;5.10;4.70;;;20.50;99.90;;;;;;5032623;28;20424;-72
2021/06/29 00:43:29;;;;;;;5.30;4.80;;;20.40;99.90;;;;;;5015887;28;20471;-72
2021/06/29 00:45:56;;;;;;;5.53;5.03;;;20.40;99.90;;;;;;5032754;28;20424;-72
2021/06/29 00:48:23;;;;;;;4.53;4.10;;;20.40;99.90;;;;;;5032133;28;20445;-72
2021/06/29 00:50:50;;;;;;;4.07;3.53;;;20.40;99.90;;;;;;5032683;28;20416;-72
2021/06/29 00:53:17;;;;;;;2.93;2.73;;;20.30;99.90;;;;;;5032305;28;20464;-72
2021/06/29 00:55:44;;;;;;;3.20;2.13;;;20.20;99.90;;;;;;5015317;28;20440;-72
2021/06/29 00:58:12;;;;;;;2.23;1.80;;;20.10;99.90;;;;;;5029990;28;20440;-72
2021/06/29 01:00:42;;;;;;;2.90;2.10;;;20.00;99.90;;;;;;5033180;28;20729;-72
2021/06/29 01:03:09;;;;;;;2.93;1.67;;;19.90;99.90;;;;;;5031186;28;20470;-72
2021/06/29 01:05:36;;;;;;;2.50;1.70;;;19.80;99.90;;;;;;5033180;28;20438;-72
2021/06/29 01:08:04;;;;;;;2.90;1.60;;;19.70;99.90;;;;;;5029930;28;20468;-72
2021/06/29 01:10:30;;;;;;;1.73;1.63;;;19.70;99.90;;;;;;5033390;28;20433;-72
2021/06/29 01:12:57;;;;;;;2.60;1.40;;;19.60;99.90;;;;;;5014499;28;20468;-72
2021/06/29 01:15:24;;;;;;;2.43;1.70;;;19.50;99.90;;;;;;5032834;28;20515;-72
2021/06/29 01:17:53;;;;;;;3.47;1.90;;;19.50;99.90;;;;;;5031002;28;20748;-72
2021/06/29 01:20:27;;;;;;;3.53;2.03;;;19.40;99.90;;;;;;5031540;28;20436;-72
2021/06/29 01:23:00;;;;;;;4.03;2.00;;;19.60;99.90;;;;;;5030728;28;21000;-72
2021/06/29 01:25:30;;;;;;;2.63;2.00;;;19.40;99.90;;;;;;5032813;28;20430;-72
2021/06/29 01:33:23;;;;;;;2.10;1.60;;;19.10;99.90;;;;;;5014690;28;20565;-72
2021/06/29 01:35:51;;;;;;;1.63;1.43;;;19.10;99.90;;;;;;5031960;28;20420;-72
2021/06/29 01:38:22;;;;;;;1.90;1.53;;;19.10;99.90;;;;;;5031113;28;20846;-72
2021/06/29 01:40:50;;;;;;;2.27;1.57;;;19.10;99.90;;;;;;5014385;28;20457;-72
2021/06/29 01:43:22;;;;;;;2.93;1.70;;;19.10;99.90;;;;;;5031944;28;20492;-72
2021/06/29 01:45:52;;;;;;;2.80;1.37;;;19.00;99.90;;;;;;5031951;28;20812;-72
2021/06/29 01:48:23;;;;;;;10.40;2.80;;;19.10;99.90;;;;;;5031282;28;20501;-71
2021/06/29 01:50:53;;;;;;;5.27;2.80;;;19.10;99.90;;;;;;5031645;28;20517;-72
2021/06/29 01:53:20;;;;;;;7.43;1.77;;;19.00;99.90;;;;;;5031506;28;20962;-72
2021/06/29 01:55:47;;;;;;;3.40;2.40;;;18.90;99.90;;;;;;5031346;28;20432;-72
2021/06/29 01:58:22;;;;;;;4.60;2.17;;;18.80;99.90;;;;;;5031962;28;20433;-71
2021/06/29 02:00:49;;;;;;;1.60;1.50;;;18.90;99.90;;;;;;5030461;28;20442;-72
2021/06/29 02:03:16;;;;;;;3.97;2.07;;;18.80;99.90;;;;;;5032050;28;20962;-71
2021/06/29 02:05:43;;;;;;;4.13;1.80;;;18.90;99.90;;;;;;5032075;28;20792;-72
2021/06/29 02:08:10;;;;;;;2.27;1.30;;;18.90;99.90;;;;;;5030663;28;20470;-71
2021/06/29 02:10:37;;;;;;;2.27;1.50;;;18.90;99.90;;;;;;5014291;28;20430;-71
2021/06/29 02:13:05;;;;;;;2.90;1.60;;;18.90;99.90;;;;;;5031257;28;20561;-72
2021/06/29 02:15:32;;;;;;;2.40;1.40;;;18.80;99.90;;;;;;5031925;28;20437;-71
2021/06/29 02:17:59;;;;;;;2.13;1.93;;;18.90;99.90;;;;;;5023778;28;20564;-71
2021/06/29 02:20:26;;;;;;;2.23;1.70;;;18.80;99.90;;;;;;5031812;28;20430;-71
2021/06/29 02:22:53;;;;;;;2.83;1.90;;;18.80;99.90;;;;;;5030348;28;20930;-71
2021/06/29 02:25:21;;;;;;;2.20;1.57;;;18.80;99.90;;;;;;5031890;28;20418;-71
2021/06/29 02:27:47;;;;;;;5.00;1.87;;;18.60;99.90;;;;;;5029214;28;20465;-71
2021/06/29 02:30:18;;;;;;;3.80;1.80;;;18.50;99.90;;;;;;5030497;28;20433;-71
2021/06/29 02:32:45;;;;;;;3.07;2.07;;;18.50;99.90;;;;;;5029537;28;20467;-71
2021/06/29 02:35:12;;;;;;;3.47;1.50;;;18.40;99.90;;;;;;5031734;28;20479;-71
2021/06/29 02:37:39;;;;;;;1.93;1.50;;;18.40;99.90;;;;;;5012092;28;20523;-71
2021/06/29 02:40:07;;;;;;;3.77;1.97;;;18.40;99.90;;;;;;4997735;28;20838;-71
2021/06/29 02:42:35;;;;;;;3.77;2.07;;;18.40;99.90;;;;;;5030706;28;20509;-71
2021/06/29 02:45:07;;;;;;;1.70;1.60;;;18.40;99.90;;;;;;5013927;28;20470;-71
2021/06/29 02:47:35;;;;;;;1.93;1.63;;;18.40;99.90;;;;;;5028490;28;20504;-71
2021/06/29 02:50:07;;;;;;;2.20;1.67;;;18.40;99.90;;;;;;5014130;28;20424;-71
2021/06/29 02:52:37;;;;;;;1.87;1.77;;;18.40;99.90;;;;;;5012781;28;20477;-71
2021/06/29 02:55:07;;;;;;;1.67;1.57;;;18.40;99.90;;;;;;5031558;28;20782;-71
2021/06/29 02:57:34;;;;;;;1.80;1.70;;;18.40;99.90;;;;;;5030648;28;20462;-71
2021/06/29 03:00:03;;;;;;;5.60;2.17;;;18.40;99.90;;;;;;5031410;28;20429;-71
2021/06/29 03:02:30;;;;;;;2.90;1.70;;;18.40;99.90;;;;;;5026462;28;20481;-71
2021/06/29 03:04:56;;;;;;;1.93;1.80;;;18.40;99.90;;;;;;5041773;28;20500;-71
2021/06/29 03:07:26;;;;;;;2.40;2.20;;;18.40;99.90;;;;;;5045338;28;21139;-71
2021/06/29 03:09:52;;;;;;;3.10;2.37;;;18.40;99.90;;;;;;5031892;28;20445;-71
2021/06/29 03:12:19;;;;;;;3.87;1.80;;;18.30;99.90;;;;;;5012870;28;20484;-71
2021/06/29 03:14:50;;;;;;;2.27;2.07;;;18.30;99.90;;;;;;5031298;28;20636;-71
2021/06/29 03:17:18;;;;;;;3.30;2.57;;;18.30;99.90;;;;;;5029492;28;20523;-71
2021/06/29 03:19:45;;;;;;;3.13;2.60;;;18.40;99.90;;;;;;5029900;28;20429;-71
2021/06/29 03:22:12;;;;;;;3.97;3.37;;;18.40;99.90;;;;;;5012205;28;20567;-71
2021/06/29 03:24:39;;;;;;;3.73;2.50;;;18.40;99.90;;;;;;5031160;28;20563;-71
2021/06/29 03:27:07;;;;;;;4.83;3.50;;;18.30;99.90;;;;;;5028400;28;20880;-71
2021/06/29 03:29:36;;;;;;;3.07;2.73;;;18.30;99.90;;;;;;5031093;28;20938;-71
2021/06/29 03:32:04;;;;;;;3.40;3.03;;;18.20;99.90;;;;;;5011275;28;20505;-71
2021/06/29 03:34:31;;;;;;;3.30;2.83;;;18.20;99.90;;;;;;5013668;28;20436;-71
2021/06/29 03:37:01;;;;;;;3.00;2.80;;;18.00;99.90;;;;;;5030304;28;20464;-71
2021/06/29 03:39:30;;;;;;;3.10;2.80;;;18.10;99.90;;;;;;5015091;28;20439;-72
2021/06/29 03:41:57;;;;;;;6.80;3.20;;;18.10;99.90;;;;;;5034027;28;20468;-71
2021/06/29 03:44:24;;;;;;;4.53;3.03;;;18.00;99.90;;;;;;5034533;28;20459;-72
2021/06/29 03:46:51;;;;;;;4.00;2.63;;;17.90;99.90;;;;;;5032977;28;20463;-72
2021/06/29 03:49:19;;;;;;;4.77;4.27;;;17.90;99.90;;;;;;5033176;28;20794;-72
2021/06/29 03:51:46;;;;;;;6.03;2.50;;;17.90;99.90;;;;;;5033703;28;20463;-72
2021/06/29 03:54:13;;;;;;;3.90;2.90;;;17.90;99.90;;;;;;5016235;28;20837;-71
2021/06/29 03:56:40;;;;;;;3.93;2.83;;;17.80;99.90;;;;;;5033824;28;20456;-72
2021/06/29 03:59:13;;;;;;;3.00;2.57;;;17.80;99.90;;;;;;5000552;28;20836;-72
2021/06/29 04:01:43;;;;;;;3.47;2.60;;;17.80;99.90;;;;;;5031871;28;20476;-72
2021/06/29 04:04:10;;;;;;;4.63;2.90;;;17.80;99.90;;;;;;5032954;28;20471;-72
2021/06/29 04:06:38;;;;;;;2.93;2.73;;;17.80;99.90;;;;;;5033690;28;20878;-72
2021/06/29 04:09:07;;;;;;;4.73;2.70;;;17.80;99.90;;;;;;5031661;28;20439;-71
2021/06/29 04:11:35;;;;;;;4.10;2.80;;;17.80;99.90;;;;;;5032829;28;20559;-72
2021/06/29 04:14:03;;;;;;;3.50;3.20;;;17.70;99.90;;;;;;5034134;28;20429;-72
2021/06/29 04:16:30;;;;;;;2.87;2.57;;;17.70;99.90;;;;;;5024390;28;20991;-71
2021/06/29 04:18:57;;;;;;;2.90;2.70;;;17.70;99.90;;;;;;5012184;28;20943;-71
2021/06/29 04:21:24;;;;;;;4.73;3.00;;;17.70;99.90;;;;;;5013350;28;20556;-72
2021/06/29 04:23:51;;;;;;;4.97;2.97;;;17.80;99.90;;;;;;5027873;28;20490;-71
2021/06/29 04:26:18;;;;;;;3.90;2.53;;;17.90;99.90;;;;;;5033211;28;20471;-72
2021/06/29 04:28:52;;;;;;;4.37;2.50;;;17.90;99.90;;;;;;5033751;28;20421;-71
2021/06/29 04:31:19;;;;;;;2.87;2.67;;;17.90;99.90;;;;;;5031639;28;20459;-71
2021/06/29 04:33:46;;;;;;;3.50;2.60;;;18.00;99.90;;;;;;5033595;28;20432;-71
2021/06/29 04:36:13;;;;;;;2.87;2.63;;;18.10;99.90;;;;;;5020034;28;20469;-71
2021/06/29 04:38:41;;;;;;;3.87;2.77;;;18.10;99.90;;;;;;5018092;28;20480;-71
2021/06/29 04:41:08;;;;;;;4.03;2.83;;;18.00;99.90;;;;;;5032474;28;20953;-71
2021/06/29 04:43:40;;;;;;;2.60;2.37;;;18.10;99.90;;;;;;5015900;28;20940;-71
2021/06/29 04:46:07;;;;;;;6.50;2.93;;;18.10;99.90;;;;;;5031918;28;20977;-71
2021/06/29 04:48:38;;;;;;;3.03;2.83;;;18.10;99.90;;;;;;5031939;28;20506;-71
2021/06/29 04:51:06;;;;;;;4.63;3.27;;;18.20;99.90;;;;;;5032281;28;20514;-71
2021/06/29 04:53:36;;;;;;;4.90;3.20;;;18.20;99.90;;;;;;5014929;28;20441;-71
2021/06/29 04:56:03;;;;;;;4.57;3.23;;;18.30;99.90;;;;;;5032681;28;20420;-71
2021/06/29 04:58:30;;;;;;;3.70;3.30;;;18.30;99.90;;;;;;5015221;28;20422;-71
2021/06/29 05:00:57;;;;;;;4.30;3.17;;;18.30;99.90;;;;;;5000364;28;20488;-71
2021/06/29 05:03:27;;;;;;;4.00;2.90;;;18.40;99.90;;;;;;4995738;28;20504;-71
2021/06/29 05:05:55;;;;;;;3.40;2.97;;;18.40;99.90;;;;;;5014113;28;20524;-71
2021/06/29 05:08:22;;;;;;;2.90;2.70;;;18.50;99.90;;;;;;5023049;28;20523;-71
2021/06/29 05:10:49;;;;;;;3.10;2.87;;;18.60;99.90;;;;;;5031168;28;20426;-71
2021/06/29 05:13:19;;;;;;;2.60;2.40;;;18.60;99.90;;;;;;5032866;28;20444;-71
2021/06/29 05:15:46;;;;;;;4.60;2.80;;;18.60;99.90;;;;;;5014810;28;20425;-72
2021/06/29 05:18:15;;;;;;;6.73;2.90;;;18.60;99.90;;;;;;5031886;28;20444;-71
2021/06/29 05:20:44;;;;;;;3.10;2.90;;;18.60;99.90;;;;;;5032631;28;20444;-71
2021/06/29 05:23:11;;;;;;;2.83;2.50;;;18.70;99.90;;;;;;5005340;28;20996;-71
2021/06/29 05:25:38;;;;;;;4.57;2.43;;;18.70;99.90;;;;;;5032601;28;20469;-71
2021/06/29 05:28:06;;;;;;;3.27;2.70;;;18.70;99.90;;;;;;5031862;28;20547;-71
2021/06/29 05:30:33;;;;;;;2.77;2.40;;;18.70;99.90;;;;;;5031570;28;20988;-71
2021/06/29 05:33:00;;;;;;;3.33;2.90;;;18.70;99.90;;;;;;5031047;28;20465;-71
2021/06/29 05:35:27;;;;;;;3.53;2.30;;;18.70;99.90;;;;;;5032646;28;20420;-71
2021/06/29 05:37:57;;;;;;;3.67;2.40;;;18.70;99.90;;;;;;5031239;28;21091;-71
2021/06/29 05:40:24;;;;;;;3.43;2.13;;;18.70;99.90;;;;;;5031076;28;20494;-71
2021/06/29 05:42:51;;;;;;;1.93;1.73;;;18.80;99.90;;;;;;5030517;28;20481;-71
2021/06/29 05:45:22;;;;;;;2.27;2.07;;;18.80;99.90;;;;;;5029905;28;20500;-71
2021/06/29 05:47:50;;;;;;;1.47;1.37;;;18.80;99.90;;;;;;5031914;28;20451;-71
2021/06/29 05:50:17;;;;;;;6.00;1.90;;;18.70;99.90;;;;;;5031137;28;20894;-71
2021/06/29 05:52:46;;;;;;;2.60;1.43;;;18.80;99.90;;;;;;5029199;28;20500;-71
2021/06/29 05:55:13;;;;;;;4.97;1.70;;;18.80;99.90;;;;;;5032347;28;20420;-71
2021/06/29 05:57:41;;;;;;;1.50;1.40;;;18.90;99.90;;;;;;5013876;28;20987;-71
2021/06/29 06:00:16;;;;;;;3.63;1.70;;;18.90;99.90;;;;;;5032090;28;20872;-71
2021/06/29 06:02:46;;;;;;;2.30;1.90;;;18.90;99.90;;;;;;5011795;28;20575;-71
2021/06/29 06:05:13;;;;;;;3.03;2.67;;;18.90;99.90;;;;;;5014130;28;20460;-71
2021/06/29 06:07:41;;;;;;;2.63;1.90;;;19.00;99.90;;;;;;5013019;28;20683;-71
2021/06/29 06:10:26;;;;;;;1.67;1.47;;;19.00;99.90;;;;;;5025919;28;20441;-71
2021/06/29 06:12:54;;;;;;;1.20;1.10;;;19.00;99.90;;;;;;5018589;28;20470;-71
2021/06/29 06:15:23;;;;;;;2.40;1.33;;;19.10;99.90;;;;;;4998106;28;20441;-71
2021/06/29 06:17:50;;;;;;;1.40;1.30;;;19.20;99.90;;;;;;5013128;28;20553;-71
2021/06/29 06:20:18;;;;;;;6.07;2.60;;;19.30;99.90;;;;;;5031952;28;20505;-71
2021/06/29 06:22:46;;;;;;;1.67;1.37;;;19.30;99.90;;;;;;5029319;28;20478;-70
2021/06/29 06:25:13;;;;;;;3.83;1.50;;;19.40;99.90;;;;;;5013804;28;20476;-71
2021/06/29 06:27:41;;;;;;;1.43;1.20;;;19.50;99.90;;;;;;5028670;28;20482;-71
2021/06/29 06:30:09;;;;;;;1.27;0.90;;;19.60;99.90;;;;;;5013069;28;20443;-71
2021/06/29 06:32:36;;;;;;;1.67;1.00;;;19.60;99.90;;;;;;5013237;28;20497;-71
2021/06/29 06:35:03;;;;;;;1.20;1.10;;;19.70;99.90;;;;;;5013921;28;20486;-71
2021/06/29 06:37:30;;;;;;;1.90;1.20;;;19.60;99.90;;;;;;5030375;28;20517;-70
2021/06/29 06:39:57;;;;;;;2.33;1.00;;;19.60;99.90;;;;;;5014259;28;20424;-71
2021/06/29 06:42:24;;;;;;;1.80;0.97;;;19.70;99.90;;;;;;5029783;28;20476;-70
2021/06/29 06:44:52;;;;;;;1.90;1.00;;;19.70;99.90;;;;;;5014191;28;20458;-70
2021/06/29 06:47:20;;;;;;;1.53;0.87;;;19.60;99.90;;;;;;5030173;28;20459;-71
2021/06/29 06:49:47;;;;;;;3.83;0.83;;;19.60;99.90;;;;;;5031628;28;20421;-70
2021/06/29 06:52:14;;;;;;;3.20;0.80;;;19.50;99.90;;;;;;5012629;28;20465;-70
2021/06/29 06:54:41;;;;;;;1.50;0.90;;;19.60;99.90;;;;;;5013798;28;20480;-71
2021/06/29 06:57:09;;;;;;;3.87;0.90;;;19.60;99.90;;;;;;5012382;28;20458;-71
2021/06/29 06:59:37;;;;;;;1.80;0.90;;;19.60;99.90;;;;;;5024450;28;20446;-70
2021/06/29 07:02:06;;;;;;;1.70;0.80;;;19.60;99.90;;;;;;5012928;28;20534;-71
2021/06/29 07:04:33;;;;;;;3.00;1.07;;;19.70;99.90;;;;;;4995807;28;20524;-71
2021/06/29 07:07:03;;;;;;;3.27;1.17;;;19.80;99.90;;;;;;5019787;28;20494;-71
2021/06/29 07:09:30;;;;;;;1.40;0.80;;;20.00;99.90;;;;;;5013499;28;20441;-71
2021/06/29 07:11:59;;;;;;;1.80;1.00;;;20.30;99.90;;;;;;5029812;28;20526;-71
2021/06/29 07:14:26;;;;;;;4.97;1.20;;;20.40;99.90;;;;;;5017140;28;20447;-71
2021/06/29 07:16:53;;;;;;;2.00;0.90;;;20.50;99.90;;;;;;5033413;28;20500;-70
2021/06/29 07:19:25;;;;;;;3.87;1.43;;;20.60;99.90;;;;;;5035092;28;20501;-71
2021/06/29 07:21:52;;;;;;;3.63;2.10;;;20.70;99.90;;;;;;5034300;28;20475;-71
2021/06/29 07:24:20;;;;;;;3.17;2.03;;;20.80;99.90;;;;;;5034443;28;20444;-70
2021/06/29 07:26:47;;;;;;;1.80;1.30;;;20.80;99.90;;;;;;5034240;28;20456;-71
2021/06/29 07:29:15;;;;;;;2.97;1.27;;;20.80;99.90;;;;;;5033579;28;20425;-71
2021/06/29 07:31:49;;;;;;;2.53;0.90;;;20.70;99.90;;;;;;5032954;28;20462;-70
2021/06/29 07:34:17;;;;;;;2.13;0.97;;;20.70;99.90;;;;;;5034990;28;20452;-70
2021/06/29 07:36:44;;;;;;;1.80;1.03;;;20.70;99.90;;;;;;5032827;28;20518;-71
2021/06/29 07:39:12;;;;;;;1.80;0.90;;;20.70;99.90;;;;;;4999908;28;20465;-71
2021/06/29 07:41:42;;;;;;;2.50;1.10;;;20.70;99.90;;;;;;5014382;28;20464;-71
2021/06/29 07:44:10;;;;;;;4.60;1.17;;;20.60;99.90;;;;;;4997431;28;20432;-71
2021/06/29 07:46:37;;;;;;;3.37;0.97;;;20.60;99.90;;;;;;5020765;28;20475;-71
2021/06/29 07:49:04;;;;;;;1.47;0.90;;;20.70;99.90;;;;;;5033168;28;20965;-71
2021/06/29 07:51:32;;;;;;;1.50;0.60;;;20.80;99.90;;;;;;5016178;28;20463;-71
2021/06/29 07:54:00;;;;;;;1.70;0.87;;;21.00;99.90;;;;;;5018178;28;20484;-71
2021/06/29 07:56:27;;;;;;;1.73;1.30;;;21.10;99.90;;;;;;5013055;28;20540;-71
2021/06/29 07:58:57;;;;;;;1.80;1.00;;;21.20;99.90;;;;;;4996958;28;20435;-71
2021/06/29 08:01:24;;;;;;;1.67;0.80;;;21.40;99.90;;;;;;5025947;28;20494;-71
2021/06/29 08:03:51;;;;;;;2.00;1.23;;;21.50;99.90;;;;;;5034335;28;20427;-71
2021/06/29 08:06:19;;;;;;;1.33;0.70;;;21.50;99.90;;;;;;5032160;28;20528;-70
2021/06/29 08:08:46;;;;;;;1.90;1.00;;;21.50;99.90;;;;;;5032912;28;20436;-71
2021/06/29 08:11:13;;;;;;;1.73;0.80;;;21.60;99.90;;;;;;5033642;28;20455;-71
2021/06/29 08:13:43;;;;;;;2.80;0.80;;;21.70;99.90;;;;;;5016461;28;20476;-71
2021/06/29 08:16:12;;;;;;;3.10;0.77;;;22.00;99.90;;;;;;5032275;28;20471;-71
2021/06/29 08:18:40;;;;;;;1.70;0.80;;;22.10;99.90;;;;;;5015333;28;20449;-71
2021/06/29 08:21:07;;;;;;;2.10;1.00;;;22.20;99.90;;;;;;5033315;28;20560;-71
2021/06/29 08:23:35;;;;;;;1.33;0.67;;;22.10;99.90;;;;;;5031484;28;20536;-71
2021/06/29 08:26:03;;;;;;;1.70;0.93;;;22.20;99.90;;;;;;5032904;28;20615;-71
2021/06/29 08:28:34;;;;;;;1.30;0.60;;;22.20;99.90;;;;;;5033219;28;20863;-71
2021/06/29 08:31:04;;;;;;;1.30;0.70;;;22.00;99.90;;;;;;5004648;28;20444;-71
2021/06/29 08:33:32;;;;;;;1.90;0.80;;;21.90;99.90;;;;;;5033674;28;20786;-71
2021/06/29 08:36:01;;;;;;;1.30;0.80;;;21.80;99.90;;;;;;5033124;28;20960;-71
2021/06/29 08:38:28;;;;;;;2.10;1.00;;;22.00;99.90;;;;;;5014812;28;21001;-71
2021/06/29 08:40:55;;;;;;;3.13;1.70;;;22.00;99.90;;;;;;5015187;28;20437;-71
2021/06/29 08:43:22;;;;;;;2.80;1.80;;;22.00;99.90;;;;;;5033337;28;20464;-71
2021/06/29 08:45:51;;;;;;;2.03;1.30;;;22.10;99.90;;;;;;5026585;28;20467;-71
2021/06/29 08:48:19;;;;;;;3.27;1.50;;;22.10;99.90;;;;;;5032225;28;20464;-71
2021/06/29 08:50:46;;;;;;;2.33;1.57;;;22.10;99.90;;;;;;5033162;28;20874;-71
2021/06/29 08:53:14;;;;;;;1.60;1.03;;;22.30;99.90;;;;;;5028541;28;20466;-71
2021/06/29 08:55:45;;;;;;;4.40;1.10;;;22.50;99.90;;;;;;5027658;28;20452;-71
2021/06/29 08:58:22;;;;;;;1.47;0.90;;;22.70;99.90;;;;;;5030693;28;20819;-71
2021/06/29 09:00:56;;;;;;;1.27;0.80;;;22.80;99.90;;;;;;5014085;28;20857;-71
2021/06/29 09:03:26;;;;;;;2.37;0.80;;;22.70;99.90;;;;;;5014491;28;20460;-71
2021/06/29 09:05:54;;;;;;;1.30;0.70;;;22.80;99.90;;;;;;5014585;28;20537;-71
2021/06/29 09:08:23;;;;;;;2.20;1.50;;;22.80;99.90;;;;;;5031669;28;20441;-71
2021/06/29 09:11:16;;;;;;;2.60;2.23;;;22.80;99.90;;;;;;5032268;28;20433;-71
2021/06/29 09:14:13;;;;;;;3.33;1.43;;;22.80;99.90;;;;;;5033089;28;20431;-71
2021/06/29 09:16:40;;;;;;;3.40;1.67;;;22.80;99.90;;;;;;5030065;28;20471;-71
2021/06/29 09:19:11;;;;;;;2.73;1.43;;;22.70;99.90;;;;;;5032640;28;20446;-71
2021/06/29 09:21:38;;;;;;;2.77;1.30;;;22.80;99.90;;;;;;5032153;28;20494;-72
2021/06/29 09:24:05;;;;;;;1.73;1.43;;;22.90;99.90;;;;;;5030965;28;20538;-71
2021/06/29 09:26:40;;;;;;;2.40;1.30;;;23.00;99.90;;;;;;5014914;28;20548;-71
2021/06/29 09:29:09;;;;;;;2.80;1.57;;;23.20;99.10;;;;;;5031337;28;20482;-70
2021/06/29 09:31:38;;;;;;;2.40;1.40;;;23.30;99.90;;;;;;5020548;28;20477;-71
2021/06/29 09:34:11;;;;;;;1.37;0.93;;;23.50;99.90;;;;;;5032053;28;20422;-71
2021/06/29 09:36:42;;;;;;;2.30;1.00;;;23.60;98.10;;;;;;5030997;28;20461;-71
2021/06/29 09:39:13;;;;;;;1.50;0.90;;;23.80;96.10;;;;;;5031215;28;20441;-71
2021/06/29 09:41:46;;;;;;;2.07;1.20;;;23.90;97.90;;;;;;5010636;28;20987;-71
2021/06/29 09:44:22;;;;;;;3.07;1.00;;;24.00;96.90;;;;;;5011451;28;20464;-71
2021/06/29 09:46:51;;;;;;;2.57;0.80;;;24.20;94.20;;;;;;4994884;28;20499;-71
2021/06/29 09:49:20;;;;;;;2.70;1.50;;;24.20;93.00;;;;;;5019587;28;20442;-71
2021/06/29 09:51:52;;;;;;;2.90;1.20;;;24.30;95.10;;;;;;5014278;28;20497;-71
2021/06/29 09:54:21;;;;;;;1.90;1.17;;;24.30;93.60;;;;;;5013873;28;20483;-70
2021/06/29 09:56:49;;;;;;;4.90;1.33;;;24.40;94.10;;;;;;5002251;28;20503;-71
2021/06/29 09:59:18;;;;;;;5.37;1.67;;;24.50;94.40;;;;;;5012292;28;20427;-71
2021/06/29 10:01:48;;;;;;;2.97;1.20;;;24.50;93.50;;;;;;4999646;28;20479;-71
2021/06/29 10:04:16;;;;;;;3.50;1.50;;;24.50;92.30;;;;;;5032195;28;20456;-71
2021/06/29 10:06:46;;;;;;;2.60;1.57;;;24.70;91.90;;;;;;5031330;28;20470;-71
2021/06/29 10:09:16;;;;;;;3.50;1.70;;;24.70;93.00;;;;;;5013570;28;20475;-71
2021/06/29 10:11:54;;;;;;;2.70;1.47;;;24.70;92.40;;;;;;5026822;28;20473;-72
2021/06/29 10:14:22;;;;;;;2.73;2.20;;;24.80;92.80;;;;;;4994774;28;20437;-73
2021/06/29 10:16:51;;;;;;;3.03;1.53;;;24.80;90.10;;;;;;5011695;28;20484;-72
2021/06/29 10:19:37;;;;;;;5.30;1.53;;;24.90;92.00;;;;;;5029917;28;20945;-69
2021/06/29 10:22:05;;;;;;;2.27;1.33;;;25.00;91.40;;;;;;5010564;28;20469;-72
2021/06/29 10:24:35;;;;;;;3.20;1.20;;;25.10;91.60;;;;;;5026202;28;20935;-69
2021/06/29 10:27:06;;;;;;;2.40;1.37;;;25.30;89.30;;;;;;5011017;28;20491;-72
2021/06/29 10:29:35;;;;;;;1.47;1.03;;;25.40;90.70;;;;;;5010726;28;20922;-70
2021/06/29 10:32:09;;;;;;;1.67;1.37;;;25.50;88.90;;;;;;5011709;28;20487;-70
2021/06/29 10:34:39;;;;;;;2.17;1.53;;;25.50;84.80;;;;;;5010915;28;20460;-70
2021/06/29 10:37:07;;;;;;;2.47;1.80;;;25.30;87.20;;;;;;5010969;28;20465;-70
2021/06/29 10:39:36;;;;;;;1.73;1.53;;;25.20;84.70;;;;;;5013914;28;20451;-70
2021/06/29 10:42:14;;;;;;;3.43;2.17;;;25.10;84.60;;;;;;5012943;28;20495;-70
2021/06/29 10:44:44;;;;;;;4.20;2.47;;;25.00;83.60;;;;;;5031757;28;20426;-70
2021/06/29 10:47:25;;;;;;;2.43;1.93;;;24.80;85.20;;;;;;5012876;28;20562;-71
2021/06/29 10:50:03;;;;;;;2.50;2.30;;;24.80;89.80;;;;;;5035830;28;20468;-70
2021/06/29 10:52:32;;;;;;;2.90;2.60;;;24.80;86.30;;;;;;5016346;28;21475;-70
2021/06/29 10:55:18;;;;;;;2.60;2.03;;;24.70;85.80;;;;;;5018199;28;20427;-70
2021/06/29 10:57:51;;;;;;;3.73;2.00;;;24.70;89.00;;;;;;5016092;28;20471;-71
2021/06/29 11:00:18;;;;;;;2.93;1.63;;;24.80;88.50;;;;;;4998532;28;20914;-70
2021/06/29 11:03:08;;;;;;;2.20;2.00;;;25.00;84.70;;;;;;4997572;28;20493;-70
2021/06/29 11:05:44;;;;;;;1.90;1.80;;;25.30;81.00;;;;;;5002409;28;20463;-70
2021/06/29 11:08:23;;;;;;;2.93;2.10;;;25.50;78.80;;;;;;5031356;28;20501;-70
2021/06/29 11:10:52;;;;;;;4.03;1.80;;;25.60;80.50;;;;;;5017427;28;20432;-70
2021/06/29 11:13:46;;;;;;;4.03;1.93;;;25.70;79.90;;;;;;5017443;28;20451;-70
2021/06/29 11:16:14;;;;;;;1.67;1.57;;;25.90;77.10;;;;;;5017298;28;20484;-70
2021/06/29 11:18:45;;;;;;;2.53;2.17;;;25.90;72.50;;;;;;5033888;28;20440;-70
2021/06/29 11:21:18;;;;;;;4.23;2.37;;;25.90;72.00;;;;;;5034595;28;20506;-70
2021/06/29 11:23:45;;;;;;;5.27;2.73;;;26.00;73.40;;;;;;5016436;28;20439;-72
2021/06/29 11:26:12;;;;;;;5.80;2.50;;;25.90;73.80;;;;;;5014341;28;20547;-70
2021/06/29 11:29:09;;;;;;;4.23;2.60;;;26.00;71.50;;;;;;5020075;28;20906;-72
2021/06/29 11:31:37;;;;;;;3.50;2.27;;;26.00;75.00;;;;;;5033223;28;20482;-71
2021/06/29 11:34:13;;;;;;;3.43;2.80;;;26.10;72.40;;;;;;5033598;28;20447;-71
2021/06/29 11:36:52;;;;;;;4.33;3.10;;;26.20;70.60;;;;;;5034036;28;21008;-71
2021/06/29 11:39:21;;;;;;;4.70;3.70;;;26.20;71.40;;;;;;5033608;28;20791;-71
2021/06/29 11:42:12;;;;;;;4.53;3.17;;;26.30;69.60;;;;;;5016120;28;20591;-72
2021/06/29 11:44:43;;;;;;;2.97;2.67;;;26.40;72.00;;;;;;4997751;28;20429;-71
2021/06/29 11:47:13;;;;;;;3.17;2.40;;;26.40;69.10;;;;;;5027838;28;20808;-71
2021/06/29 11:49:51;;;;;;;2.83;2.57;;;26.40;65.20;;;;;;5034587;28;20470;-71
2021/06/29 11:52:32;;;;;;;5.63;2.90;;;26.30;67.70;;;;;;5022555;28;20464;-71
2021/06/29 11:55:20;;;;;;;3.37;2.70;;;26.30;69.60;;;;;;5034187;28;20436;-71
2021/06/29 11:57:53;;;;;;;3.33;2.63;;;26.40;67.70;;;;;;5015848;28;20492;-71
2021/06/29 12:00:35;;;;;;;4.50;2.43;;;26.30;69.50;;;;;;5026186;28;20461;-71
2021/06/29 12:03:16;;;;;;;10.50;2.87;;;26.20;70.70;;;;;;4996938;28;20480;-71
2021/06/29 12:05:43;;;;;;;3.73;2.70;;;26.10;71.00;;;;;;4997127;28;20526;-71
2021/06/29 12:08:12;;;;;;;6.00;3.90;;;26.10;73.90;;;;;;5021654;28;20559;-71
2021/06/29 12:10:42;;;;;;;9.63;3.00;;;26.20;72.00;;;;;;5034149;28;20420;-71
2021/06/29 12:13:13;;;;;;;4.80;3.77;;;26.10;71.50;;;;;;5015811;28;20456;-71
2021/06/29 12:15:44;;;;;;;2.30;2.10;;;26.10;69.40;;;;;;5015706;28;20448;-70
2021/06/29 12:18:13;;;;;;;2.73;1.80;;;26.30;69.60;;;;;;5015785;28;20499;-71
2021/06/29 12:20:53;;;;;;;2.27;2.07;;;26.30;69.60;;;;;;5033976;28;20442;-70
2021/06/29 12:23:22;;;;;;;4.57;2.10;;;26.30;69.50;;;;;;5031030;28;20472;-69
2021/06/29 12:25:55;;;;;;;2.87;2.53;;;26.50;69.20;;;;;;4996541;28;20503;-70
2021/06/29 12:28:25;;;;;;;2.50;1.87;;;26.60;66.20;;;;;;5013925;28;20417;-70
2021/06/29 12:31:03;;;;;;;4.43;2.30;;;26.70;62.70;;;;;;5015699;28;20449;-70
2021/06/29 12:33:36;;;;;;;2.40;2.20;;;26.70;65.50;;;;;;5032712;28;20957;-70
2021/06/29 12:36:09;;;;;;;2.20;1.97;;;26.70;64.20;;;;;;5015950;28;20459;-70
2021/06/29 12:38:40;;;;;;;2.10;1.90;;;26.70;60.20;;;;;;5011868;28;20507;-70
2021/06/29 12:41:25;;;;;;;1.87;1.77;;;26.50;64.60;;;;;;5011577;28;20503;-70
2021/06/29 12:44:00;;;;;;;2.50;2.03;;;26.50;63.40;;;;;;5012569;28;20437;-70
2021/06/29 12:46:30;;;;;;;2.70;2.20;;;26.60;67.50;;;;;;5013319;28;20476;-70
2021/06/29 12:49:02;;;;;;;1.67;1.57;;;26.60;64.60;;;;;;5029167;28;21008;-71
2021/06/29 12:51:32;;;;;;;3.00;1.57;;;26.50;64.70;;;;;;4998829;28;20460;-71
2021/06/29 12:54:04;;;;;;;2.33;1.70;;;26.40;65.80;;;;;;5014637;28;20444;-70
2021/06/29 12:56:39;;;;;;;2.37;1.33;;;26.20;66.70;;;;;;5000253;28;20463;-71
2021/06/29 12:59:08;;;;;;;1.33;1.23;;;26.20;69.60;;;;;;4996041;28;20543;-71
2021/06/29 13:01:40;;;;;;;2.00;1.80;;;26.10;69.30;;;;;;5012812;28;20471;-71
2021/06/29 13:04:13;;;;;;;3.30;1.87;;;26.00;68.40;;;;;;5029745;28;20475;-71